Time;durP1;ratioP1;P1;durP2;ratioP2;P2;SDS_P1;SDS_P2;PMS_P1;PMS_P2;Temp;Humidity;BMP_temperature;BMP_pressure;BME280_temperature;BME280_humidity;BME280_pressure;Samples;Min_cycle;Max_cycle;Signal;HPM_P1;HPM_P2
2023/11/29 00:02:26;;;;;;;42.75;31.30;;;-1.40;99.90;;;;;;4943334;28;20516;-77
2023/11/29 00:04:53;;;;;;;45.15;31.45;;;-1.40;99.90;;;;;;4941908;28;20042;-78
2023/11/29 00:07:20;;;;;;;46.00;32.35;;;-1.40;99.90;;;;;;4975626;28;20042;-77
2023/11/29 00:09:46;;;;;;;43.53;29.25;;;-1.40;99.90;;;;;;4953398;28;20043;-76
2023/11/29 00:12:13;;;;;;;39.80;29.17;;;-1.40;99.90;;;;;;4969570;28;20051;-77
2023/11/29 00:14:40;;;;;;;33.88;26.95;;;-1.20;99.90;;;;;;4975669;28;20130;-77
2023/11/29 00:17:07;;;;;;;38.53;26.88;;;-1.30;99.90;;;;;;4957168;28;20117;-76
2023/11/29 00:19:40;;;;;;;43.08;29.45;;;-1.30;99.90;;;;;;4961601;28;20158;-74
2023/11/29 00:22:08;;;;;;;47.22;29.02;;;-1.20;99.90;;;;;;4956519;28;20049;-78
2023/11/29 00:24:34;;;;;;;42.42;30.27;;;-1.20;99.90;;;;;;4947594;28;20344;-77
2023/11/29 00:27:01;;;;;;;43.25;29.63;;;-1.20;99.90;;;;;;4965797;28;20042;-77
2023/11/29 00:29:28;;;;;;;43.45;30.08;;;-1.10;99.90;;;;;;4965712;28;20271;-77
2023/11/29 00:31:55;;;;;;;41.55;28.48;;;-1.10;99.90;;;;;;4978730;28;20042;-77
2023/11/29 00:34:22;;;;;;;42.55;28.02;;;-1.10;99.90;;;;;;4957466;28;20046;-78
2023/11/29 00:36:51;;;;;;;40.35;29.02;;;-1.00;99.90;;;;;;4954321;28;20039;-76
2023/11/29 00:39:20;;;;;;;44.38;27.60;;;-1.00;99.90;;;;;;4960419;28;20609;-78
2023/11/29 00:41:47;;;;;;;39.03;28.48;;;-0.90;99.90;;;;;;4959421;28;20045;-75
2023/11/29 00:44:14;;;;;;;33.15;24.40;;;-0.80;99.90;;;;;;4960086;28;20049;-76
2023/11/29 00:46:41;;;;;;;45.67;25.27;;;-0.80;99.90;;;;;;4955592;28;20222;-77
2023/11/29 00:49:08;;;;;;;34.35;22.13;;;-0.80;99.90;;;;;;4960358;28;20548;-75
2023/11/29 00:51:35;;;;;;;34.17;25.20;;;-0.70;99.90;;;;;;4962207;28;20046;-76
2023/11/29 00:54:02;;;;;;;39.72;26.20;;;-0.70;99.90;;;;;;4946599;28;20081;-74
2023/11/29 00:56:29;;;;;;;32.75;25.63;;;-0.70;99.90;;;;;;4970948;28;20042;-75
2023/11/29 00:58:57;;;;;;;36.40;25.42;;;-0.60;99.90;;;;;;4941010;28;20124;-75
2023/11/29 01:01:24;;;;;;;31.40;23.58;;;-0.60;99.90;;;;;;4955062;28;20058;-75
2023/11/29 01:03:51;;;;;;;28.38;23.38;;;-0.60;99.90;;;;;;4971249;28;20436;-76
2023/11/29 01:06:18;;;;;;;28.45;23.73;;;-0.50;99.90;;;;;;4938667;28;20117;-75
2023/11/29 01:08:45;;;;;;;34.42;25.27;;;-0.50;99.90;;;;;;4953264;28;20100;-75
2023/11/29 01:11:12;;;;;;;32.35;25.58;;;-0.50;99.90;;;;;;4949643;28;20066;-77
2023/11/29 01:13:39;;;;;;;30.45;22.90;;;-0.50;99.90;;;;;;4958615;28;20054;-76
2023/11/29 01:16:06;;;;;;;32.47;25.00;;;-0.40;99.90;;;;;;4955200;28;20154;-76
2023/11/29 01:18:33;;;;;;;30.95;24.42;;;-0.30;99.90;;;;;;4960433;28;20053;-75
2023/11/29 01:21:00;;;;;;;27.77;24.83;;;-0.30;99.90;;;;;;4964864;28;20058;-75
2023/11/29 01:23:27;;;;;;;25.60;22.63;;;-0.30;99.90;;;;;;4997126;28;20041;-74
2023/11/29 01:25:54;;;;;;;26.25;23.52;;;-0.20;99.90;;;;;;4984319;28;20045;-75
2023/11/29 01:28:22;;;;;;;24.95;22.35;;;-0.20;99.90;;;;;;4966073;28;20050;-77
2023/11/29 01:30:48;;;;;;;26.95;24.05;;;-0.20;99.90;;;;;;4966348;28;20054;-76
2023/11/29 01:33:15;;;;;;;24.42;21.58;;;-0.20;99.90;;;;;;4946481;28;20054;-75
2023/11/29 01:35:42;;;;;;;25.90;23.15;;;-0.10;99.90;;;;;;4954682;28;20047;-75
2023/11/29 01:38:09;;;;;;;23.52;21.13;;;-0.20;99.90;;;;;;4958878;28;20069;-76
2023/11/29 01:40:36;;;;;;;26.23;21.95;;;-0.10;99.90;;;;;;4959254;28;20560;-76
2023/11/29 01:43:03;;;;;;;25.75;22.27;;;-0.10;99.90;;;;;;4978460;28;20058;-76
2023/11/29 01:45:31;;;;;;;22.83;20.42;;;-0.10;99.90;;;;;;4976685;28;20046;-75
2023/11/29 01:47:59;;;;;;;28.55;21.08;;;-0.10;99.90;;;;;;4961500;28;20054;-76
2023/11/29 01:50:36;;;;;;;28.33;19.45;;;-0.20;99.90;;;;;;4943976;28;20107;-76
2023/11/29 01:53:03;;;;;;;21.92;15.93;;;-0.10;99.90;;;;;;4974133;28;20080;-76
2023/11/29 01:55:33;;;;;;;21.35;15.90;;;-0.20;99.90;;;;;;4955424;28;20050;-76
2023/11/29 01:57:59;;;;;;;26.58;16.63;;;-0.20;99.90;;;;;;4948786;28;20042;-77
2023/11/29 02:00:26;;;;;;;21.67;15.20;;;-0.10;99.90;;;;;;4967643;28;20046;-76
2023/11/29 02:02:53;;;;;;;22.42;15.43;;;-0.20;99.90;;;;;;4952538;28;20048;-76
2023/11/29 02:05:20;;;;;;;21.08;15.00;;;-0.10;99.90;;;;;;4954047;28;20424;-75
2023/11/29 02:07:48;;;;;;;17.23;13.10;;;0.00;99.90;;;;;;4958880;28;20053;-76
2023/11/29 02:10:15;;;;;;;20.70;16.00;;;-0.10;99.90;;;;;;4955063;28;20050;-76
2023/11/29 02:12:42;;;;;;;16.98;14.82;;;0.00;99.90;;;;;;4951522;28;20060;-76
2023/11/29 02:15:10;;;;;;;21.58;16.90;;;0.00;99.90;;;;;;4956978;28;20061;-74
2023/11/29 02:17:37;;;;;;;20.15;16.80;;;0.00;99.90;;;;;;4943521;28;20054;-78
2023/11/29 02:20:04;;;;;;;19.90;15.90;;;0.10;99.90;;;;;;4953699;28;20185;-76
2023/11/29 02:22:34;;;;;;;17.05;14.48;;;0.10;99.90;;;;;;4958054;28;20050;-75
2023/11/29 02:25:01;;;;;;;20.42;16.30;;;0.10;99.90;;;;;;4975605;28;20050;-76
2023/11/29 02:27:29;;;;;;;17.42;15.65;;;0.10;99.90;;;;;;4970442;28;20041;-76
2023/11/29 02:29:56;;;;;;;24.33;17.33;;;0.10;99.90;;;;;;4970332;28;20061;-75
2023/11/29 02:32:22;;;;;;;18.88;16.75;;;0.10;99.90;;;;;;4973638;28;20043;-76
2023/11/29 02:34:50;;;;;;;19.60;17.27;;;0.20;99.90;;;;;;4958645;28;20058;-75
2023/11/29 02:37:16;;;;;;;22.42;15.68;;;0.20;99.90;;;;;;4954948;28;20042;-75
2023/11/29 02:39:43;;;;;;;19.02;17.00;;;0.20;99.90;;;;;;4956050;28;20057;-76
2023/11/29 02:42:10;;;;;;;20.08;17.23;;;0.20;99.90;;;;;;4969877;28;20644;-75
2023/11/29 02:44:37;;;;;;;19.80;17.75;;;0.20;99.90;;;;;;4958997;28;20074;-76
2023/11/29 02:47:04;;;;;;;19.70;17.17;;;0.20;99.90;;;;;;4941545;28;20042;-76
2023/11/29 02:49:31;;;;;;;20.98;17.33;;;0.10;99.90;;;;;;4937298;28;20050;-76
2023/11/29 02:51:59;;;;;;;19.00;17.08;;;0.20;99.90;;;;;;4943856;28;20629;-74
2023/11/29 02:54:25;;;;;;;19.35;17.38;;;0.20;99.90;;;;;;4953266;28;20910;-76
2023/11/29 02:56:52;;;;;;;19.13;17.23;;;0.10;99.90;;;;;;4949807;28;20038;-76
2023/11/29 02:59:19;;;;;;;19.65;17.45;;;0.10;99.90;;;;;;4958447;28;21091;-76
2023/11/29 03:01:46;;;;;;;21.67;16.20;;;0.10;99.90;;;;;;4956611;28;20043;-75
2023/11/29 03:04:13;;;;;;;19.25;17.65;;;0.20;99.90;;;;;;4961713;28;20113;-75
2023/11/29 03:06:40;;;;;;;20.08;18.23;;;0.20;99.90;;;;;;4953689;28;20146;-75
2023/11/29 03:09:07;;;;;;;18.70;17.10;;;0.20;99.90;;;;;;4957075;28;20038;-75
2023/11/29 03:11:36;;;;;;;19.58;17.90;;;0.20;99.90;;;;;;4953827;28;20048;-76
2023/11/29 03:14:03;;;;;;;19.38;17.65;;;0.30;99.90;;;;;;4955591;28;20050;-76
2023/11/29 03:16:33;;;;;;;19.58;17.63;;;0.30;99.90;;;;;;4936660;28;21404;-74
2023/11/29 03:19:00;;;;;;;18.63;17.13;;;0.40;99.90;;;;;;4944476;28;20492;-75
2023/11/29 03:21:28;;;;;;;19.15;17.45;;;0.40;99.90;;;;;;4956864;28;20649;-75
2023/11/29 03:24:21;;;;;;;19.08;17.38;;;0.40;99.90;;;;;;4954587;28;20041;-74
2023/11/29 03:26:54;;;;;;;18.70;16.95;;;0.40;99.90;;;;;;4963180;28;20129;-76
2023/11/29 03:29:21;;;;;;;18.85;17.05;;;0.40;99.90;;;;;;4956165;28;20095;-75
2023/11/29 03:31:47;;;;;;;18.77;16.98;;;0.40;99.90;;;;;;4954934;28;20035;-74
2023/11/29 03:34:15;;;;;;;18.73;16.83;;;0.40;99.90;;;;;;4938910;28;20047;-76
2023/11/29 03:36:42;;;;;;;18.02;16.27;;;0.40;99.90;;;;;;4954820;28;20420;-74
2023/11/29 03:39:09;;;;;;;18.70;16.80;;;0.50;99.90;;;;;;4960324;28;20058;-75
2023/11/29 03:41:36;;;;;;;18.45;16.55;;;0.50;99.90;;;;;;4967887;28;20063;-76
2023/11/29 03:44:03;;;;;;;18.23;16.40;;;0.40;99.90;;;;;;4957888;28;20118;-75
2023/11/29 03:46:30;;;;;;;20.42;16.58;;;0.40;99.90;;;;;;4938018;28;20060;-75
2023/11/29 03:48:57;;;;;;;18.65;16.15;;;0.50;99.90;;;;;;4958945;28;20046;-74
2023/11/29 03:51:23;;;;;;;17.23;15.52;;;0.50;99.90;;;;;;4950491;28;20043;-75
2023/11/29 03:53:57;;;;;;;17.88;15.93;;;0.50;99.90;;;;;;4973876;28;20069;-75
2023/11/29 03:56:24;;;;;;;17.30;15.35;;;0.50;99.90;;;;;;4954662;28;20074;-76
2023/11/29 03:58:50;;;;;;;18.40;16.23;;;0.50;99.90;;;;;;4960117;28;20062;-75
2023/11/29 04:01:17;;;;;;;19.13;17.15;;;0.50;99.90;;;;;;4973653;28;20492;-75
2023/11/29 04:03:44;;;;;;;17.52;15.70;;;0.50;99.90;;;;;;4958547;28;20043;-76
2023/11/29 04:06:23;;;;;;;22.10;15.60;;;0.50;99.90;;;;;;4951708;28;20957;-74
2023/11/29 04:08:51;;;;;;;20.08;17.13;;;0.50;99.90;;;;;;4953815;28;20488;-75
2023/11/29 04:11:18;;;;;;;24.27;17.25;;;0.50;99.90;;;;;;4955613;28;20046;-75
2023/11/29 04:13:48;;;;;;;18.52;16.52;;;0.60;99.90;;;;;;4957003;28;20056;-76
2023/11/29 04:16:24;;;;;;;20.10;17.37;;;0.50;99.90;;;;;;4953105;28;20085;-76
2023/11/29 04:18:54;;;;;;;23.50;16.90;;;0.50;99.90;;;;;;4946668;28;20597;-75
2023/11/29 04:21:32;;;;;;;21.30;16.63;;;0.50;99.90;;;;;;4960599;28;20043;-75
2023/11/29 04:24:00;;;;;;;20.55;18.10;;;0.50;99.90;;;;;;4945966;28;20076;-75
2023/11/29 04:26:28;;;;;;;20.08;17.42;;;0.50;99.90;;;;;;4958345;28;20496;-75
2023/11/29 04:28:59;;;;;;;22.55;16.77;;;0.60;99.90;;;;;;4955671;28;20343;-76
2023/11/29 04:31:26;;;;;;;25.08;18.48;;;0.50;99.90;;;;;;4955278;28;20038;-75
2023/11/29 04:33:53;;;;;;;22.52;17.33;;;0.60;99.90;;;;;;4960785;28;20050;-75
2023/11/29 04:36:20;;;;;;;24.65;18.02;;;0.50;99.90;;;;;;4957720;28;20077;-73
2023/11/29 04:38:48;;;;;;;27.25;17.85;;;0.60;99.90;;;;;;4965013;28;20099;-75
2023/11/29 04:41:16;;;;;;;22.55;16.27;;;0.50;99.90;;;;;;4958139;28;20045;-75
2023/11/29 04:43:44;;;;;;;25.27;17.23;;;0.50;99.90;;;;;;4964867;28;20045;-76
2023/11/29 04:46:12;;;;;;;20.50;16.25;;;0.50;99.90;;;;;;4956062;28;20940;-77
2023/11/29 04:48:39;;;;;;;18.38;14.55;;;0.60;99.90;;;;;;4956713;28;20058;-73
2023/11/29 04:51:06;;;;;;;26.27;18.67;;;0.50;99.90;;;;;;4960074;28;20030;-76
2023/11/29 04:53:33;;;;;;;27.67;18.10;;;0.50;99.90;;;;;;4953949;28;20498;-75
2023/11/29 04:56:00;;;;;;;29.40;17.98;;;0.60;99.90;;;;;;4973283;28;20057;-76
2023/11/29 04:58:27;;;;;;;23.50;17.58;;;0.50;99.90;;;;;;4970994;28;20118;-75
2023/11/29 05:00:54;;;;;;;22.20;16.80;;;0.60;99.90;;;;;;4979601;28;20101;-73
2023/11/29 05:03:21;;;;;;;24.40;18.15;;;0.60;99.90;;;;;;5001920;28;20072;-76
2023/11/29 05:05:48;;;;;;;21.75;17.65;;;0.60;99.90;;;;;;4988240;28;20078;-73
2023/11/29 05:08:15;;;;;;;23.27;18.45;;;0.60;99.90;;;;;;4971204;28;20066;-75
2023/11/29 05:10:42;;;;;;;25.33;19.45;;;0.60;99.90;;;;;;4987300;28;20046;-78
2023/11/29 05:13:09;;;;;;;23.17;18.08;;;0.60;99.90;;;;;;4978612;28;20054;-77
2023/11/29 05:15:41;;;;;;;22.95;18.90;;;0.60;99.90;;;;;;4946604;28;20053;-77
2023/11/29 05:18:08;;;;;;;29.73;19.38;;;0.60;99.90;;;;;;4961338;28;20054;-75
2023/11/29 05:20:35;;;;;;;22.85;18.17;;;0.60;99.90;;;;;;4944898;28;20042;-75
2023/11/29 05:23:02;;;;;;;22.80;18.13;;;0.60;99.90;;;;;;4947853;28;20638;-76
2023/11/29 05:25:29;;;;;;;25.45;18.48;;;0.60;99.90;;;;;;4954815;28;20050;-77
2023/11/29 05:28:03;;;;;;;29.65;19.67;;;0.50;99.90;;;;;;4959945;28;20030;-76
2023/11/29 05:30:29;;;;;;;26.60;17.90;;;0.50;99.90;;;;;;4975046;28;20069;-76
2023/11/29 05:33:07;;;;;;;21.00;14.90;;;0.50;99.90;;;;;;4947473;28;20696;-77
2023/11/29 05:35:34;;;;;;;24.02;16.33;;;0.50;99.90;;;;;;4959005;28;20133;-77
2023/11/29 05:38:01;;;;;;;23.63;16.42;;;0.50;99.90;;;;;;4960404;28;20057;-75
2023/11/29 05:40:27;;;;;;;23.80;16.27;;;0.50;99.90;;;;;;4951347;28;21638;-75
2023/11/29 05:42:55;;;;;;;23.58;16.52;;;0.50;99.90;;;;;;4943646;28;20042;-73
2023/11/29 05:45:21;;;;;;;29.88;18.15;;;0.60;99.90;;;;;;4940428;28;20056;-74
2023/11/29 05:47:51;;;;;;;24.77;15.82;;;0.60;99.90;;;;;;4959505;28;20038;-76
2023/11/29 05:50:18;;;;;;;21.98;14.85;;;0.60;99.90;;;;;;4941550;28;20047;-75
2023/11/29 05:52:45;;;;;;;20.00;14.02;;;0.60;99.90;;;;;;4959921;28;20035;-75
2023/11/29 05:55:12;;;;;;;25.30;15.95;;;0.60;99.90;;;;;;4953634;28;20058;-76
2023/11/29 05:57:39;;;;;;;22.88;15.82;;;0.60;99.90;;;;;;4958525;28;20548;-77
2023/11/29 06:00:09;;;;;;;25.40;15.52;;;0.70;99.90;;;;;;4940292;28;20524;-77
2023/11/29 06:03:06;;;;;;;24.95;16.33;;;0.70;99.90;;;;;;4975220;28;20050;-76
2023/11/29 06:05:34;;;;;;;23.45;14.30;;;0.60;99.90;;;;;;4955820;28;20603;-76
2023/11/29 06:08:01;;;;;;;24.75;14.77;;;0.60;99.90;;;;;;4957993;28;20085;-75
2023/11/29 06:10:32;;;;;;;24.83;16.33;;;0.60;99.90;;;;;;4964663;28;20069;-77
2023/11/29 06:12:58;;;;;;;18.90;13.95;;;0.60;99.90;;;;;;4956158;28;20113;-74
2023/11/29 06:15:26;;;;;;;22.58;15.32;;;0.60;99.90;;;;;;4953088;28;20055;-75
2023/11/29 06:17:57;;;;;;;24.80;16.73;;;0.60;99.90;;;;;;4941312;28;20830;-74
2023/11/29 06:20:24;;;;;;;21.92;15.25;;;0.70;99.90;;;;;;4953112;28;20062;-75
2023/11/29 06:22:53;;;;;;;27.42;16.38;;;0.70;99.90;;;;;;4977699;28;20602;-74
2023/11/29 06:25:20;;;;;;;24.65;16.63;;;0.70;99.90;;;;;;4960639;28;20714;-74
2023/11/29 06:27:47;;;;;;;21.00;15.38;;;0.70;99.90;;;;;;4957817;28;20046;-75
2023/11/29 06:30:16;;;;;;;21.23;15.70;;;0.70;99.90;;;;;;4943503;28;20041;-76
2023/11/29 06:32:46;;;;;;;21.33;16.52;;;0.70;99.90;;;;;;4974760;28;20057;-75
2023/11/29 06:35:13;;;;;;;20.95;16.45;;;0.70;99.90;;;;;;4939652;28;20046;-75
2023/11/29 06:37:42;;;;;;;21.50;15.93;;;0.70;99.90;;;;;;4947524;28;20129;-76
2023/11/29 06:40:16;;;;;;;;;;;0.70;99.90;;;;;;4942794;28;20608;-75
2023/11/29 06:42:43;;;;;;;19.23;16.83;;;0.70;99.90;;;;;;4962307;28;20240;-75
2023/11/29 06:45:19;;;;;;;21.92;15.30;;;0.60;99.90;;;;;;4976895;28;20046;-75
2023/11/29 06:47:47;;;;;;;25.25;15.90;;;0.60;99.90;;;;;;4973411;28;20490;-77
2023/11/29 06:50:14;;;;;;;23.15;16.92;;;0.70;99.90;;;;;;4958139;28;20046;-76
2023/11/29 06:52:42;;;;;;;19.85;16.65;;;0.70;99.90;;;;;;4979158;28;20066;-75
2023/11/29 06:55:16;;;;;;;16.83;15.07;;;0.80;99.90;;;;;;4937038;28;20133;-75
2023/11/29 06:57:45;;;;;;;;;;;0.80;99.90;;;;;;4963388;28;20050;-75
2023/11/29 07:00:16;;;;;;;16.08;14.38;;;0.90;99.90;;;;;;4969971;28;19965;-74
2023/11/29 07:02:44;;;;;;;18.13;15.30;;;0.90;99.90;;;;;;4960513;28;20708;-74
2023/11/29 07:05:11;;;;;;;16.92;14.75;;;0.90;99.90;;;;;;4960202;28;20042;-75
2023/11/29 07:07:38;;;;;;;16.42;14.73;;;0.90;99.90;;;;;;4963017;28;20590;-73
2023/11/29 07:10:09;;;;;;;19.20;16.73;;;0.90;99.90;;;;;;4953540;28;20525;-73
2023/11/29 07:12:36;;;;;;;19.30;17.42;;;1.00;99.90;;;;;;4955293;28;20043;-73
2023/11/29 07:15:04;;;;;;;16.90;15.35;;;1.00;99.90;;;;;;4950548;28;20061;-73
2023/11/29 07:17:42;;;;;;;18.13;16.33;;;1.00;99.90;;;;;;4951607;28;20303;-72
2023/11/29 07:20:11;;;;;;;17.20;15.05;;;1.00;99.90;;;;;;4949846;28;20117;-73
2023/11/29 07:22:38;;;;;;;17.92;16.08;;;1.00;99.90;;;;;;4957143;28;20101;-71
2023/11/29 07:25:06;;;;;;;17.33;15.82;;;1.00;99.90;;;;;;4954943;28;20287;-71
2023/11/29 07:27:34;;;;;;;22.08;18.40;;;1.00;99.90;;;;;;4938468;28;20101;-73
2023/11/29 07:30:01;;;;;;;18.70;16.83;;;1.00;99.90;;;;;;4954598;28;20089;-71
2023/11/29 07:32:28;;;;;;;19.67;17.67;;;1.00;99.90;;;;;;4957426;28;20198;-72
2023/11/29 07:34:55;;;;;;;18.52;16.63;;;1.10;99.90;;;;;;4970125;28;20066;-73
2023/11/29 07:37:22;;;;;;;20.17;18.20;;;1.00;99.90;;;;;;4954388;28;20687;-72
2023/11/29 07:39:49;;;;;;;20.10;17.88;;;1.00;99.90;;;;;;4957476;28;20081;-73
2023/11/29 07:42:16;;;;;;;20.17;18.08;;;1.10;99.90;;;;;;4956957;28;20046;-71
2023/11/29 07:44:43;;;;;;;21.52;19.40;;;1.10;99.90;;;;;;4947375;28;20047;-72
2023/11/29 07:47:13;;;;;;;20.05;17.98;;;1.10;99.90;;;;;;4946237;28;20381;-72
2023/11/29 07:49:40;;;;;;;18.63;16.65;;;1.10;99.90;;;;;;4955936;28;20505;-72
2023/11/29 07:52:06;;;;;;;20.00;18.10;;;1.10;99.90;;;;;;4955178;28;20050;-70
2023/11/29 07:54:36;;;;;;;21.85;19.52;;;1.30;99.90;;;;;;4971430;28;20049;-71
2023/11/29 07:57:06;;;;;;;19.10;17.30;;;1.20;99.90;;;;;;4954385;28;20046;-71
2023/11/29 07:59:34;;;;;;;29.25;23.70;;;1.20;99.90;;;;;;4966727;28;20042;-71
2023/11/29 08:02:01;;;;;;;25.27;20.27;;;1.20;99.90;;;;;;4953335;28;20081;-71
2023/11/29 08:04:28;;;;;;;25.60;22.60;;;1.20;99.90;;;;;;4966577;28;21083;-73
2023/11/29 08:06:54;;;;;;;21.48;19.27;;;1.20;99.90;;;;;;4966900;28;20073;-71
2023/11/29 08:09:21;;;;;;;22.85;19.98;;;1.20;99.90;;;;;;4962640;28;20460;-72
2023/11/29 08:11:49;;;;;;;23.13;20.55;;;1.20;99.90;;;;;;4968129;28;20094;-72
2023/11/29 08:14:16;;;;;;;20.83;18.85;;;1.20;99.90;;;;;;4968526;28;20126;-71
2023/11/29 08:16:43;;;;;;;26.17;23.42;;;1.20;99.90;;;;;;4979614;28;20055;-71
2023/11/29 08:19:10;;;;;;;27.10;21.42;;;1.20;99.90;;;;;;4965037;28;20047;-71
2023/11/29 08:21:37;;;;;;;25.52;22.80;;;1.20;99.90;;;;;;4968111;28;20054;-72
2023/11/29 08:24:05;;;;;;;27.65;24.20;;;1.20;99.90;;;;;;4965894;28;20046;-71
2023/11/29 08:26:41;;;;;;;27.58;22.55;;;1.20;99.90;;;;;;4973790;28;20035;-72
2023/11/29 08:29:08;;;;;;;26.48;21.60;;;1.20;99.90;;;;;;4956836;28;20039;-73
2023/11/29 08:31:45;;;;;;;22.35;19.80;;;1.30;99.90;;;;;;4983617;28;20035;-71
2023/11/29 08:34:11;;;;;;;21.75;19.48;;;1.20;99.90;;;;;;4969555;28;21691;-72
2023/11/29 08:36:39;;;;;;;21.20;18.15;;;1.20;99.90;;;;;;4969961;28;20046;-71
2023/11/29 08:39:06;;;;;;;21.52;17.73;;;1.20;99.90;;;;;;4976845;28;20046;-71
2023/11/29 08:41:33;;;;;;;25.15;18.67;;;1.20;99.90;;;;;;4968642;28;20405;-73
2023/11/29 08:43:59;;;;;;;22.33;18.13;;;1.20;99.90;;;;;;4973051;28;20038;-72
2023/11/29 08:46:26;;;;;;;22.63;19.08;;;1.20;99.90;;;;;;4979341;28;20038;-72
2023/11/29 08:48:54;;;;;;;27.90;20.30;;;1.20;99.90;;;;;;4968690;28;20026;-72
2023/11/29 08:51:21;;;;;;;23.55;18.83;;;1.20;99.90;;;;;;4954219;28;20515;-73
2023/11/29 08:53:49;;;;;;;22.40;20.00;;;1.30;99.90;;;;;;4972319;28;20047;-73
2023/11/29 08:56:19;;;;;;;26.77;20.55;;;1.40;99.90;;;;;;4962390;28;20049;-72
2023/11/29 08:58:48;;;;;;;38.10;26.15;;;1.40;99.90;;;;;;4963434;28;20046;-71
2023/11/29 09:01:19;;;;;;;28.67;21.63;;;1.40;99.90;;;;;;4956847;28;20090;-71
2023/11/29 09:03:46;;;;;;;21.45;18.13;;;1.40;99.90;;;;;;4956418;28;20498;-72
2023/11/29 09:06:15;;;;;;;25.00;21.52;;;1.40;99.90;;;;;;4969463;28;20041;-72
2023/11/29 09:08:43;;;;;;;27.08;22.73;;;1.40;99.90;;;;;;4970756;28;20053;-73
2023/11/29 09:11:10;;;;;;;24.30;21.63;;;1.40;99.90;;;;;;4956976;28;20753;-73
2023/11/29 09:13:38;;;;;;;27.45;23.48;;;1.40;99.90;;;;;;4973551;28;20057;-73
2023/11/29 09:16:05;;;;;;;22.35;20.10;;;1.50;99.90;;;;;;4964093;28;20053;-72
2023/11/29 09:18:34;;;;;;;23.80;21.48;;;1.50;99.90;;;;;;4934288;28;20145;-73
2023/11/29 09:21:02;;;;;;;24.92;22.35;;;1.50;99.90;;;;;;4938437;28;20050;-72
2023/11/29 09:23:32;;;;;;;21.50;19.20;;;1.50;99.90;;;;;;4935476;28;20046;-71
2023/11/29 09:25:59;;;;;;;20.35;18.38;;;1.60;99.90;;;;;;4954958;28;20307;-71
2023/11/29 09:28:28;;;;;;;21.08;18.92;;;1.60;99.90;;;;;;4949600;28;21766;-71
2023/11/29 09:30:54;;;;;;;20.67;18.48;;;1.70;99.90;;;;;;4955953;28;20533;-72
2023/11/29 09:33:21;;;;;;;22.73;18.13;;;1.60;99.90;;;;;;4955664;28;20074;-72
2023/11/29 09:35:48;;;;;;;22.35;18.75;;;1.60;99.90;;;;;;4976437;28;20047;-72
2023/11/29 09:38:16;;;;;;;70.18;38.90;;;1.60;99.90;;;;;;4957333;28;20074;-72
2023/11/29 09:40:45;;;;;;;19.75;14.85;;;1.40;99.90;;;;;;4939386;28;20394;-72
2023/11/29 09:43:12;;;;;;;19.85;16.77;;;1.40;99.90;;;;;;4938464;28;20053;-71
2023/11/29 09:45:39;;;;;;;22.92;18.75;;;1.40;99.90;;;;;;4964509;28;20055;-75
2023/11/29 09:48:06;;;;;;;25.42;19.10;;;1.40;99.90;;;;;;4950687;28;20068;-73
2023/11/29 09:50:35;;;;;;;21.83;15.07;;;1.30;99.90;;;;;;4942648;28;20052;-72
2023/11/29 09:53:01;;;;;;;25.60;17.67;;;1.40;99.90;;;;;;4963333;28;20153;-71
2023/11/29 09:55:28;;;;;;;29.60;19.80;;;1.30;99.90;;;;;;4953903;28;20066;-71
2023/11/29 09:57:56;;;;;;;21.80;17.40;;;1.30;99.90;;;;;;4956011;28;20046;-72
2023/11/29 10:00:24;;;;;;;20.73;16.73;;;1.30;99.90;;;;;;4953041;28;20053;-72
2023/11/29 10:02:51;;;;;;;22.25;16.02;;;1.30;99.90;;;;;;4961120;28;20061;-73
2023/11/29 10:05:19;;;;;;;22.27;15.57;;;1.30;99.90;;;;;;4952195;28;20039;-73
2023/11/29 10:07:46;;;;;;;28.50;19.70;;;1.40;99.90;;;;;;4971655;28;20050;-72
2023/11/29 10:10:13;;;;;;;25.92;16.05;;;1.40;99.90;;;;;;4961232;28;20185;-72
2023/11/29 10:12:43;;;;;;;30.48;20.23;;;1.30;99.90;;;;;;4980127;28;20111;-72
2023/11/29 10:15:12;;;;;;;28.85;18.40;;;1.30;99.90;;;;;;4976130;28;20152;-71
2023/11/29 10:17:44;;;;;;;33.67;20.05;;;1.30;99.90;;;;;;4957703;28;20080;-71
2023/11/29 10:20:13;;;;;;;29.23;18.75;;;1.40;99.90;;;;;;4943109;28;20057;-70
2023/11/29 10:22:41;;;;;;;24.50;15.77;;;1.30;99.90;;;;;;4960631;28;20099;-71
2023/11/29 10:25:19;;;;;;;29.35;17.95;;;1.30;99.90;;;;;;4957457;28;20053;-72
2023/11/29 10:27:48;;;;;;;30.30;18.65;;;1.30;99.90;;;;;;4962786;28;20121;-71
2023/11/29 10:30:17;;;;;;;23.38;15.95;;;1.30;99.90;;;;;;4956402;28;20034;-70
2023/11/29 10:32:47;;;;;;;22.60;15.70;;;1.30;99.90;;;;;;4960972;28;20555;-71
2023/11/29 10:35:17;;;;;;;30.10;18.17;;;1.30;99.90;;;;;;4960221;28;20042;-72
2023/11/29 10:37:51;;;;;;;37.45;21.02;;;1.30;99.90;;;;;;4971701;28;20066;-70
2023/11/29 10:40:18;;;;;;;31.13;18.30;;;1.30;99.90;;;;;;4957375;28;20054;-71
2023/11/29 10:42:50;;;;;;;29.95;18.55;;;1.30;99.90;;;;;;4959760;28;20153;-72
2023/11/29 10:45:17;;;;;;;31.45;18.60;;;1.30;99.90;;;;;;4948704;28;20050;-71
2023/11/29 10:47:58;;;;;;;32.83;20.42;;;1.30;99.90;;;;;;4972153;28;20145;-71
2023/11/29 10:50:26;;;;;;;28.63;16.02;;;1.30;99.90;;;;;;4972478;28;20121;-72
2023/11/29 10:52:53;;;;;;;32.30;18.83;;;1.40;99.90;;;;;;4958193;28;20062;-73
2023/11/29 10:55:21;;;;;;;26.42;18.88;;;1.30;99.90;;;;;;4954925;28;20051;-71
2023/11/29 10:57:56;;;;;;;39.28;21.92;;;1.30;99.90;;;;;;4974781;28;20121;-71
2023/11/29 11:00:26;;;;;;;36.63;21.10;;;1.30;99.90;;;;;;4960308;28;20056;-71
2023/11/29 11:02:53;;;;;;;34.08;21.58;;;1.30;99.90;;;;;;4962004;28;20104;-71
2023/11/29 11:05:24;;;;;;;42.85;24.58;;;1.30;99.90;;;;;;4967127;28;20108;-73
2023/11/29 11:07:52;;;;;;;38.00;22.70;;;1.40;99.90;;;;;;4957175;28;20038;-70
2023/11/29 11:10:24;;;;;;;50.35;26.85;;;1.40;99.90;;;;;;4940572;28;20138;-72
2023/11/29 11:12:53;;;;;;;40.65;23.00;;;1.40;99.90;;;;;;4960368;28;20182;-72
2023/11/29 11:15:28;;;;;;;45.03;26.30;;;1.40;99.90;;;;;;4952270;28;20050;-70
2023/11/29 11:18:01;;;;;;;48.67;25.02;;;1.40;99.90;;;;;;4958464;28;20145;-72
2023/11/29 11:20:41;;;;;;;48.90;27.40;;;1.50;99.90;;;;;;4954347;28;20054;-72
2023/11/29 11:23:16;;;;;;;45.47;26.38;;;1.40;99.90;;;;;;4966300;28;20492;-71
2023/11/29 11:25:43;;;;;;;53.20;29.73;;;1.40;99.90;;;;;;4941656;28;20046;-71
2023/11/29 11:28:31;;;;;;;45.70;27.85;;;1.40;99.90;;;;;;4954401;28;20042;-71
2023/11/29 11:31:06;;;;;;;43.72;25.88;;;1.40;99.90;;;;;;4979124;28;20054;-72
2023/11/29 11:33:51;;;;;;;51.20;29.45;;;1.40;99.90;;;;;;4958556;28;20133;-72
2023/11/29 11:36:23;;;;;;;51.80;27.85;;;1.40;99.90;;;;;;4959735;28;20039;-70
2023/11/29 11:38:50;;;;;;;52.03;27.52;;;1.40;99.90;;;;;;4964858;28;20073;-71
2023/11/29 11:41:17;;;;;;;49.53;26.90;;;1.40;99.90;;;;;;4952848;28;20129;-72
2023/11/29 11:43:45;;;;;;;51.25;27.77;;;1.40;99.90;;;;;;4962766;28;20061;-72
2023/11/29 11:46:12;;;;;;;51.13;28.33;;;1.40;99.90;;;;;;4948824;28;20078;-71
2023/11/29 11:48:38;;;;;;;53.45;27.73;;;1.50;99.90;;;;;;4974906;28;20046;-71
2023/11/29 11:51:06;;;;;;;54.05;29.13;;;1.50;99.90;;;;;;4946617;28;20670;-71
2023/11/29 11:53:42;;;;;;;45.50;27.92;;;1.50;99.90;;;;;;4970420;28;20049;-72
2023/11/29 11:56:18;;;;;;;46.15;25.98;;;1.40;99.90;;;;;;4959209;28;20046;-72
2023/11/29 11:58:45;;;;;;;36.45;23.45;;;1.50;99.90;;;;;;4956444;28;20102;-72
2023/11/29 12:01:13;;;;;;;37.08;20.95;;;1.50;99.90;;;;;;4963787;28;20037;-73
2023/11/29 12:03:40;;;;;;;32.42;19.95;;;1.50;99.90;;;;;;4965267;28;20046;-73
2023/11/29 12:06:08;;;;;;;29.67;19.58;;;1.50;99.90;;;;;;4963859;28;20288;-71
2023/11/29 12:08:37;;;;;;;26.40;19.30;;;1.50;99.90;;;;;;4976486;28;20669;-74
2023/11/29 12:11:07;;;;;;;29.45;17.98;;;1.60;99.90;;;;;;4950982;28;20042;-73
2023/11/29 12:13:34;;;;;;;28.70;17.77;;;1.60;99.90;;;;;;4960106;28;20130;-73
2023/11/29 12:16:14;;;;;;;30.23;18.50;;;1.50;99.90;;;;;;4965451;28;20124;-72
2023/11/29 12:18:41;;;;;;;26.73;16.67;;;1.60;99.90;;;;;;4974221;28;20049;-73
2023/11/29 12:21:09;;;;;;;28.60;16.98;;;1.50;99.90;;;;;;4948272;28;20046;-72
2023/11/29 12:23:41;;;;;;;24.17;15.90;;;1.60;99.90;;;;;;4963910;28;20043;-73
2023/11/29 12:26:13;;;;;;;26.50;17.33;;;1.60;99.90;;;;;;4996221;28;20053;-71
2023/11/29 12:28:41;;;;;;;27.45;14.68;;;1.60;99.90;;;;;;4986670;28;20062;-70
2023/11/29 12:31:08;;;;;;;26.50;17.48;;;1.50;99.90;;;;;;4974334;28;20124;-73
2023/11/29 12:33:35;;;;;;;33.42;19.08;;;1.50;99.90;;;;;;4963242;28;20065;-72
2023/11/29 12:36:05;;;;;;;26.67;16.00;;;1.50;99.90;;;;;;4954295;28;20073;-72
2023/11/29 12:38:33;;;;;;;47.42;18.52;;;1.50;99.90;;;;;;4957307;28;20054;-71
2023/11/29 12:40:59;;;;;;;29.05;16.73;;;1.50;99.90;;;;;;4963641;28;20042;-71
2023/11/29 12:43:26;;;;;;;31.77;16.95;;;1.50;99.90;;;;;;4961679;28;20038;-70